sensor_id;sensor_type;location;lat;lon;timestamp;P1;P2;P0
73687;PMS7003;62257;48.376;-4.378;2022-07-19T00:01:28;18.25;18.25;14.75
73687;PMS7003;62257;48.376;-4.378;2022-07-19T00:03:53;27.25;21.50;16.25
73687;PMS7003;62257;48.376;-4.378;2022-07-19T00:06:21;19.00;19.00;14.50
73687;PMS7003;62257;48.376;-4.378;2022-07-19T00:08:46;19.50;18.00;14.75
73687;PMS7003;62257;48.376;-4.378;2022-07-19T00:11:12;20.50;17.75;14.25
73687;PMS7003;62257;48.376;-4.378;2022-07-19T00:13:37;22.50;22.50;17.00
73687;PMS7003;62257;48.376;-4.378;2022-07-19T00:16:02;23.25;22.75;18.25
73687;PMS7003;62257;48.376;-4.378;2022-07-19T00:18:28;25.50;24.25;17.75
73687;PMS7003;62257;48.376;-4.378;2022-07-19T00:20:53;29.50;25.00;19.75
73687;PMS7003;62257;48.376;-4.378;2022-07-19T00:23:19;29.00;25.25;18.75
73687;PMS7003;62257;48.376;-4.378;2022-07-19T00:25:44;37.00;30.00;21.25
73687;PMS7003;62257;48.376;-4.378;2022-07-19T00:28:10;34.75;31.25;21.25
73687;PMS7003;62257;48.376;-4.378;2022-07-19T00:30:35;32.00;29.75;21.75
73687;PMS7003;62257;48.376;-4.378;2022-07-19T00:33:01;30.75;27.00;21.25
73687;PMS7003;62257;48.376;-4.378;2022-07-19T00:35:29;28.50;28.25;21.75
73687;PMS7003;62257;48.376;-4.378;2022-07-19T00:37:54;34.25;32.50;24.00
73687;PMS7003;62257;48.376;-4.378;2022-07-19T00:40:21;41.50;35.50;23.50
73687;PMS7003;62257;48.376;-4.378;2022-07-19T00:42:47;40.75;34.75;23.75
73687;PMS7003;62257;48.376;-4.378;2022-07-19T00:45:13;39.50;36.00;25.00
73687;PMS7003;62257;48.376;-4.378;2022-07-19T00:47:39;45.00;37.50;27.75
73687;PMS7003;62257;48.376;-4.378;2022-07-19T00:50:05;42.00;34.00;24.50
73687;PMS7003;62257;48.376;-4.378;2022-07-19T00:52:31;31.75;30.75;23.50
73687;PMS7003;62257;48.376;-4.378;2022-07-19T00:54:57;39.25;34.75;25.50
73687;PMS7003;62257;48.376;-4.378;2022-07-19T00:57:24;43.50;38.00;25.50
73687;PMS7003;62257;48.376;-4.378;2022-07-19T00:59:50;42.25;36.75;24.50
73687;PMS7003;62257;48.376;-4.378;2022-07-19T01:02:18;43.75;37.00;25.25
73687;PMS7003;62257;48.376;-4.378;2022-07-19T01:04:44;40.25;35.00;23.75
73687;PMS7003;62257;48.376;-4.378;2022-07-19T01:07:10;50.75;41.75;26.50
73687;PMS7003;62257;48.376;-4.378;2022-07-19T01:09:38;44.25;37.50;25.50
73687;PMS7003;62257;48.376;-4.378;2022-07-19T01:12:06;49.50;39.50;26.75
73687;PMS7003;62257;48.376;-4.378;2022-07-19T01:14:32;46.00;36.25;24.25
73687;PMS7003;62257;48.376;-4.378;2022-07-19T01:17:00;50.00;40.25;28.50
73687;PMS7003;62257;48.376;-4.378;2022-07-19T01:19:26;54.50;45.00;30.50
73687;PMS7003;62257;48.376;-4.378;2022-07-19T01:21:52;56.50;47.00;31.25
73687;PMS7003;62257;48.376;-4.378;2022-07-19T01:24:17;57.00;43.00;31.25
73687;PMS7003;62257;48.376;-4.378;2022-07-19T01:26:42;53.75;45.00;28.75
73687;PMS7003;62257;48.376;-4.378;2022-07-19T01:29:08;54.50;44.75;28.25
73687;PMS7003;62257;48.376;-4.378;2022-07-19T01:31:38;59.75;48.75;32.50
73687;PMS7003;62257;48.376;-4.378;2022-07-19T01:34:04;55.25;46.75;32.00
73687;PMS7003;62257;48.376;-4.378;2022-07-19T01:36:29;51.75;42.25;30.00
73687;PMS7003;62257;48.376;-4.378;2022-07-19T01:38:55;53.25;45.00;31.00
73687;PMS7003;62257;48.376;-4.378;2022-07-19T01:41:20;49.00;43.00;29.00
73687;PMS7003;62257;48.376;-4.378;2022-07-19T01:43:45;51.75;42.00;29.00
73687;PMS7003;62257;48.376;-4.378;2022-07-19T01:46:11;43.50;38.00;27.75
73687;PMS7003;62257;48.376;-4.378;2022-07-19T01:48:36;53.00;43.50;29.50
73687;PMS7003;62257;48.376;-4.378;2022-07-19T01:51:02;42.25;37.50;26.00
73687;PMS7003;62257;48.376;-4.378;2022-07-19T01:53:27;56.25;44.00;27.50
73687;PMS7003;62257;48.376;-4.378;2022-07-19T01:55:52;42.75;37.50;25.25
73687;PMS7003;62257;48.376;-4.378;2022-07-19T01:58:18;55.00;43.00;28.25
73687;PMS7003;62257;48.376;-4.378;2022-07-19T02:00:43;51.25;43.00;29.25
73687;PMS7003;62257;48.376;-4.378;2022-07-19T02:03:10;52.00;43.75;30.50
73687;PMS7003;62257;48.376;-4.378;2022-07-19T02:05:35;53.50;43.00;26.75
73687;PMS7003;62257;48.376;-4.378;2022-07-19T02:08:01;60.25;45.00;29.75
73687;PMS7003;62257;48.376;-4.378;2022-07-19T02:10:26;53.50;44.50;31.50
73687;PMS7003;62257;48.376;-4.378;2022-07-19T02:12:52;50.50;41.00;29.00
73687;PMS7003;62257;48.376;-4.378;2022-07-19T02:15:17;52.00;42.75;28.25
73687;PMS7003;62257;48.376;-4.378;2022-07-19T02:17:43;40.50;37.50;25.50
73687;PMS7003;62257;48.376;-4.378;2022-07-19T02:20:08;40.25;36.25;26.50
73687;PMS7003;62257;48.376;-4.378;2022-07-19T02:22:34;46.00;38.75;27.25
73687;PMS7003;62257;48.376;-4.378;2022-07-19T02:25:00;46.00;39.50;27.75
73687;PMS7003;62257;48.376;-4.378;2022-07-19T02:27:25;43.50;35.25;25.00
73687;PMS7003;62257;48.376;-4.378;2022-07-19T02:29:51;46.75;38.00;25.50
73687;PMS7003;62257;48.376;-4.378;2022-07-19T02:32:16;42.25;35.25;24.00
73687;PMS7003;62257;48.376;-4.378;2022-07-19T02:34:42;36.75;32.00;21.00
73687;PMS7003;62257;48.376;-4.378;2022-07-19T02:37:07;38.75;31.25;21.50
73687;PMS7003;62257;48.376;-4.378;2022-07-19T02:39:33;34.00;30.75;21.00
73687;PMS7003;62257;48.376;-4.378;2022-07-19T02:41:58;31.50;27.50;17.50
73687;PMS7003;62257;48.376;-4.378;2022-07-19T02:44:24;38.00;32.75;23.00
73687;PMS7003;62257;48.376;-4.378;2022-07-19T02:46:49;34.75;31.75;21.75
73687;PMS7003;62257;48.376;-4.378;2022-07-19T02:49:15;32.50;31.50;22.00
73687;PMS7003;62257;48.376;-4.378;2022-07-19T02:51:40;30.50;29.75;20.25
73687;PMS7003;62257;48.376;-4.378;2022-07-19T02:54:06;30.50;28.75;21.00
73687;PMS7003;62257;48.376;-4.378;2022-07-19T02:56:31;25.75;23.50;19.50
73687;PMS7003;62257;48.376;-4.378;2022-07-19T02:58:57;25.50;23.25;16.25
73687;PMS7003;62257;48.376;-4.378;2022-07-19T03:01:22;28.75;25.75;18.00
73687;PMS7003;62257;48.376;-4.378;2022-07-19T03:03:48;29.75;25.50;16.25
73687;PMS7003;62257;48.376;-4.378;2022-07-19T03:06:14;23.00;23.00;17.00
73687;PMS7003;62257;48.376;-4.378;2022-07-19T03:08:41;25.50;23.00;16.00
73687;PMS7003;62257;48.376;-4.378;2022-07-19T03:11:06;27.25;24.75;17.50
73687;PMS7003;62257;48.376;-4.378;2022-07-19T03:13:32;28.50;27.75;19.25
73687;PMS7003;62257;48.376;-4.378;2022-07-19T03:15:58;26.50;24.75;17.25
73687;PMS7003;62257;48.376;-4.378;2022-07-19T03:18:23;26.50;25.50;17.50
73687;PMS7003;62257;48.376;-4.378;2022-07-19T03:20:48;29.25;24.75;18.00
73687;PMS7003;62257;48.376;-4.378;2022-07-19T03:23:14;21.50;19.50;13.75
73687;PMS7003;62257;48.376;-4.378;2022-07-19T03:25:39;24.75;21.00;14.75
73687;PMS7003;62257;48.376;-4.378;2022-07-19T03:28:05;22.25;19.25;15.00
73687;PMS7003;62257;48.376;-4.378;2022-07-19T03:30:30;22.00;16.00;12.00
73687;PMS7003;62257;48.376;-4.378;2022-07-19T03:32:57;30.75;27.00;18.50
73687;PMS7003;62257;48.376;-4.378;2022-07-19T03:35:23;23.25;23.25;17.00
73687;PMS7003;62257;48.376;-4.378;2022-07-19T03:37:48;24.75;24.50;17.50
73687;PMS7003;62257;48.376;-4.378;2022-07-19T03:40:14;26.00;24.25;19.25
73687;PMS7003;62257;48.376;-4.378;2022-07-19T03:42:39;25.75;22.25;15.25
73687;PMS7003;62257;48.376;-4.378;2022-07-19T03:45:05;30.25;26.25;18.00
73687;PMS7003;62257;48.376;-4.378;2022-07-19T03:47:30;24.25;23.25;17.75
73687;PMS7003;62257;48.376;-4.378;2022-07-19T03:49:56;23.75;22.50;18.00
73687;PMS7003;62257;48.376;-4.378;2022-07-19T03:52:22;28.50;26.25;18.00
73687;PMS7003;62257;48.376;-4.378;2022-07-19T03:54:49;26.75;25.00;16.75
73687;PMS7003;62257;48.376;-4.378;2022-07-19T03:57:14;26.25;23.00;18.00
73687;PMS7003;62257;48.376;-4.378;2022-07-19T03:59:40;25.25;24.50;18.50
73687;PMS7003;62257;48.376;-4.378;2022-07-19T04:02:05;24.75;23.50;19.25
73687;PMS7003;62257;48.376;-4.378;2022-07-19T04:04:31;26.75;25.75;18.25
73687;PMS7003;62257;48.376;-4.378;2022-07-19T04:06:56;26.50;24.25;17.50
73687;PMS7003;62257;48.376;-4.378;2022-07-19T04:09:22;26.75;23.50;17.25
73687;PMS7003;62257;48.376;-4.378;2022-07-19T04:11:48;24.75;22.75;15.75
73687;PMS7003;62257;48.376;-4.378;2022-07-19T04:14:13;25.50;23.25;15.75
73687;PMS7003;62257;48.376;-4.378;2022-07-19T04:16:39;24.00;23.00;17.00
73687;PMS7003;62257;48.376;-4.378;2022-07-19T04:19:04;29.50;23.00;17.75
73687;PMS7003;62257;48.376;-4.378;2022-07-19T04:21:29;26.25;24.50;18.50
73687;PMS7003;62257;48.376;-4.378;2022-07-19T04:23:55;23.75;23.75;18.75
73687;PMS7003;62257;48.376;-4.378;2022-07-19T04:26:20;24.50;24.25;17.25
73687;PMS7003;62257;48.376;-4.378;2022-07-19T04:28:46;28.25;26.75;19.50
73687;PMS7003;62257;48.376;-4.378;2022-07-19T04:31:11;25.25;23.50;16.50
73687;PMS7003;62257;48.376;-4.378;2022-07-19T04:33:36;23.00;21.00;15.00
73687;PMS7003;62257;48.376;-4.378;2022-07-19T04:36:02;23.50;19.25;13.75
73687;PMS7003;62257;48.376;-4.378;2022-07-19T04:38:28;23.25;22.25;15.25
73687;PMS7003;62257;48.376;-4.378;2022-07-19T04:40:53;28.75;21.50;14.50
73687;PMS7003;62257;48.376;-4.378;2022-07-19T04:43:19;24.00;20.50;14.75
73687;PMS7003;62257;48.376;-4.378;2022-07-19T04:45:44;26.00;22.50;17.75
73687;PMS7003;62257;48.376;-4.378;2022-07-19T04:48:10;15.25;13.00;7.25
73687;PMS7003;62257;48.376;-4.378;2022-07-19T04:50:36;0.25;0.00;0.00
73687;PMS7003;62257;48.376;-4.378;2022-07-19T04:53:01;1.00;0.00;0.00
73687;PMS7003;62257;48.376;-4.378;2022-07-19T04:55:27;17.75;13.50;10.25
73687;PMS7003;62257;48.376;-4.378;2022-07-19T04:57:52;30.25;28.50;20.00
73687;PMS7003;62257;48.376;-4.378;2022-07-19T05:00:18;29.50;27.25;17.75
73687;PMS7003;62257;48.376;-4.378;2022-07-19T05:02:44;28.75;24.75;18.25
73687;PMS7003;62257;48.376;-4.378;2022-07-19T05:05:09;37.75;33.75;21.25
73687;PMS7003;62257;48.376;-4.378;2022-07-19T05:07:35;37.50;32.75;21.50
73687;PMS7003;62257;48.376;-4.378;2022-07-19T05:10:02;41.75;33.75;21.00
73687;PMS7003;62257;48.376;-4.378;2022-07-19T05:12:29;34.50;30.25;21.00
73687;PMS7003;62257;48.376;-4.378;2022-07-19T05:14:55;34.00;30.75;20.25
73687;PMS7003;62257;48.376;-4.378;2022-07-19T05:17:20;35.00;30.75;20.00
73687;PMS7003;62257;48.376;-4.378;2022-07-19T05:19:46;31.75;29.75;20.00
73687;PMS7003;62257;48.376;-4.378;2022-07-19T05:22:11;37.00;31.00;19.50
73687;PMS7003;62257;48.376;-4.378;2022-07-19T05:24:37;34.25;29.25;19.75
73687;PMS7003;62257;48.376;-4.378;2022-07-19T05:27:02;37.50;30.50;19.25
73687;PMS7003;62257;48.376;-4.378;2022-07-19T05:29:28;40.00;33.50;22.00
73687;PMS7003;62257;48.376;-4.378;2022-07-19T05:31:53;29.00;25.50;19.00
73687;PMS7003;62257;48.376;-4.378;2022-07-19T05:34:19;36.25;31.50;23.00
73687;PMS7003;62257;48.376;-4.378;2022-07-19T05:36:44;42.25;33.75;22.25
73687;PMS7003;62257;48.376;-4.378;2022-07-19T05:39:10;42.75;36.25;24.25
73687;PMS7003;62257;48.376;-4.378;2022-07-19T05:41:35;41.50;32.75;22.50
73687;PMS7003;62257;48.376;-4.378;2022-07-19T05:44:01;38.50;32.00;21.00
73687;PMS7003;62257;48.376;-4.378;2022-07-19T05:46:26;40.75;36.00;24.00
73687;PMS7003;62257;48.376;-4.378;2022-07-19T05:48:51;31.25;23.25;17.00
73687;PMS7003;62257;48.376;-4.378;2022-07-19T05:51:16;37.25;31.00;20.25
73687;PMS7003;62257;48.376;-4.378;2022-07-19T05:53:42;39.25;34.25;24.00
73687;PMS7003;62257;48.376;-4.378;2022-07-19T05:56:07;40.50;34.50;22.25
73687;PMS7003;62257;48.376;-4.378;2022-07-19T05:58:33;25.75;18.50;12.25
73687;PMS7003;62257;48.376;-4.378;2022-07-19T06:00:58;36.00;28.50;20.00
73687;PMS7003;62257;48.376;-4.378;2022-07-19T06:03:42;35.25;30.25;21.50
73687;PMS7003;62257;48.376;-4.378;2022-07-19T06:06:07;34.75;29.75;20.00
73687;PMS7003;62257;48.376;-4.378;2022-07-19T06:08:33;36.50;32.50;23.25
73687;PMS7003;62257;48.376;-4.378;2022-07-19T06:10:58;36.25;31.50;21.50
73687;PMS7003;62257;48.376;-4.378;2022-07-19T06:13:24;36.50;31.50;20.75
73687;PMS7003;62257;48.376;-4.378;2022-07-19T06:15:49;30.75;27.25;17.00
73687;PMS7003;62257;48.376;-4.378;2022-07-19T06:18:15;34.75;30.00;22.00
73687;PMS7003;62257;48.376;-4.378;2022-07-19T06:20:40;35.00;30.00;20.25
73687;PMS7003;62257;48.376;-4.378;2022-07-19T06:23:05;30.75;29.25;20.25
73687;PMS7003;62257;48.376;-4.378;2022-07-19T06:25:30;32.50;30.25;22.00
73687;PMS7003;62257;48.376;-4.378;2022-07-19T06:27:56;34.00;29.50;20.00
73687;PMS7003;62257;48.376;-4.378;2022-07-19T06:30:21;45.00;38.50;25.00
73687;PMS7003;62257;48.376;-4.378;2022-07-19T06:32:46;48.25;39.25;25.25
73687;PMS7003;62257;48.376;-4.378;2022-07-19T06:35:12;49.00;38.50;27.00
73687;PMS7003;62257;48.376;-4.378;2022-07-19T06:37:37;40.50;35.50;24.75
73687;PMS7003;62257;48.376;-4.378;2022-07-19T06:40:02;45.00;37.25;23.25
73687;PMS7003;62257;48.376;-4.378;2022-07-19T06:42:29;42.50;34.00;23.25
73687;PMS7003;62257;48.376;-4.378;2022-07-19T06:44:55;25.75;23.50;14.25
73687;PMS7003;62257;48.376;-4.378;2022-07-19T06:47:21;40.75;35.00;24.25
73687;PMS7003;62257;48.376;-4.378;2022-07-19T06:49:46;48.75;37.25;24.25
73687;PMS7003;62257;48.376;-4.378;2022-07-19T06:52:12;45.00;36.75;24.50
73687;PMS7003;62257;48.376;-4.378;2022-07-19T06:54:37;43.25;37.00;24.00
73687;PMS7003;62257;48.376;-4.378;2022-07-19T06:57:02;39.50;34.50;24.25
73687;PMS7003;62257;48.376;-4.378;2022-07-19T06:59:28;36.00;30.75;21.50
73687;PMS7003;62257;48.376;-4.378;2022-07-19T07:01:53;37.25;31.00;22.00
73687;PMS7003;62257;48.376;-4.378;2022-07-19T07:04:19;34.25;30.25;20.00
73687;PMS7003;62257;48.376;-4.378;2022-07-19T07:06:44;26.25;21.00;15.25
73687;PMS7003;62257;48.376;-4.378;2022-07-19T07:09:10;27.00;25.75;19.75
73687;PMS7003;62257;48.376;-4.378;2022-07-19T07:11:35;25.50;25.00;17.00
73687;PMS7003;62257;48.376;-4.378;2022-07-19T07:14:01;23.75;21.00;15.50
73687;PMS7003;62257;48.376;-4.378;2022-07-19T07:16:26;11.25;3.75;0.00
73687;PMS7003;62257;48.376;-4.378;2022-07-19T07:18:51;21.00;17.75;12.75
73687;PMS7003;62257;48.376;-4.378;2022-07-19T07:21:17;22.00;21.25;14.25
73687;PMS7003;62257;48.376;-4.378;2022-07-19T07:23:42;23.75;21.75;14.00
73687;PMS7003;62257;48.376;-4.378;2022-07-19T07:26:08;27.25;22.50;14.75
73687;PMS7003;62257;48.376;-4.378;2022-07-19T07:28:33;29.50;25.50;16.50
73687;PMS7003;62257;48.376;-4.378;2022-07-19T07:30:58;37.00;32.00;20.25
73687;PMS7003;62257;48.376;-4.378;2022-07-19T07:33:24;32.25;29.25;20.25
73687;PMS7003;62257;48.376;-4.378;2022-07-19T07:35:49;30.25;26.00;17.50
73687;PMS7003;62257;48.376;-4.378;2022-07-19T07:38:15;31.50;26.75;18.25
73687;PMS7003;62257;48.376;-4.378;2022-07-19T07:40:40;38.25;34.25;23.00
73687;PMS7003;62257;48.376;-4.378;2022-07-19T07:43:06;35.50;33.00;22.75
73687;PMS7003;62257;48.376;-4.378;2022-07-19T07:45:32;33.50;28.25;20.50
73687;PMS7003;62257;48.376;-4.378;2022-07-19T07:47:58;26.25;25.50;19.50
73687;PMS7003;62257;48.376;-4.378;2022-07-19T07:50:23;33.75;29.75;20.25
73687;PMS7003;62257;48.376;-4.378;2022-07-19T07:52:49;34.25;28.25;19.00
73687;PMS7003;62257;48.376;-4.378;2022-07-19T07:55:15;30.75;30.75;21.50
73687;PMS7003;62257;48.376;-4.378;2022-07-19T07:57:40;36.00;30.00;19.75
73687;PMS7003;62257;48.376;-4.378;2022-07-19T08:00:06;34.25;30.00;19.50
73687;PMS7003;62257;48.376;-4.378;2022-07-19T08:02:40;28.75;21.75;16.50
73687;PMS7003;62257;48.376;-4.378;2022-07-19T08:05:07;23.75;18.50;14.00
73687;PMS7003;62257;48.376;-4.378;2022-07-19T08:07:34;28.75;22.25;15.25
73687;PMS7003;62257;48.376;-4.378;2022-07-19T08:10:00;25.00;21.25;13.75
73687;PMS7003;62257;48.376;-4.378;2022-07-19T08:12:26;21.75;19.00;13.00
73687;PMS7003;62257;48.376;-4.378;2022-07-19T08:14:51;20.75;19.25;12.25
73687;PMS7003;62257;48.376;-4.378;2022-07-19T08:17:17;27.25;26.00;17.75
73687;PMS7003;62257;48.376;-4.378;2022-07-19T08:19:42;26.75;23.00;17.25
73687;PMS7003;62257;48.376;-4.378;2022-07-19T08:22:08;31.25;26.75;18.75
73687;PMS7003;62257;48.376;-4.378;2022-07-19T08:24:33;19.00;17.75;12.25
73687;PMS7003;62257;48.376;-4.378;2022-07-19T08:26:59;31.75;26.50;16.25
73687;PMS7003;62257;48.376;-4.378;2022-07-19T08:29:24;22.75;20.25;15.50
73687;PMS7003;62257;48.376;-4.378;2022-07-19T08:31:50;27.75;22.25;15.75
73687;PMS7003;62257;48.376;-4.378;2022-07-19T08:34:15;24.50;20.25;13.25
73687;PMS7003;62257;48.376;-4.378;2022-07-19T08:36:41;24.50;21.25;14.25
73687;PMS7003;62257;48.376;-4.378;2022-07-19T13:41:16;7.00;7.00;6.00
73687;PMS7003;62257;48.376;-4.378;2022-07-19T13:43:42;6.25;5.50;4.00
73687;PMS7003;62257;48.376;-4.378;2022-07-19T15:04:27;8.00;7.00;5.25
73687;PMS7003;62257;48.376;-4.378;2022-07-19T15:06:52;5.00;3.75;3.25
73687;PMS7003;62257;48.376;-4.378;2022-07-19T15:09:18;4.50;4.50;3.25
73687;PMS7003;62257;48.376;-4.378;2022-07-19T15:11:43;5.25;5.25;4.00
73687;PMS7003;62257;48.376;-4.378;2022-07-19T15:14:09;6.50;4.75;4.00
73687;PMS7003;62257;48.376;-4.378;2022-07-19T15:16:35;6.25;4.00;3.00
73687;PMS7003;62257;48.376;-4.378;2022-07-19T15:19:01;5.50;4.00;3.00
73687;PMS7003;62257;48.376;-4.378;2022-07-19T15:21:27;3.75;3.00;3.00
73687;PMS7003;62257;48.376;-4.378;2022-07-19T15:23:52;7.75;4.25;3.75
73687;PMS7003;62257;48.376;-4.378;2022-07-19T15:26:18;4.00;4.00;3.00
73687;PMS7003;62257;48.376;-4.378;2022-07-19T15:28:43;7.00;4.50;3.25
73687;PMS7003;62257;48.376;-4.378;2022-07-19T15:31:09;3.00;3.00;2.25
73687;PMS7003;62257;48.376;-4.378;2022-07-19T15:33:34;3.25;3.25;2.75
73687;PMS7003;62257;48.376;-4.378;2022-07-19T15:36:00;2.50;1.50;1.25
73687;PMS7003;62257;48.376;-4.378;2022-07-19T15:38:25;3.50;2.75;2.00
73687;PMS7003;62257;48.376;-4.378;2022-07-19T15:40:51;4.00;3.25;2.25
73687;PMS7003;62257;48.376;-4.378;2022-07-19T15:43:17;3.00;2.25;2.00
73687;PMS7003;62257;48.376;-4.378;2022-07-19T15:45:44;3.50;3.00;2.25
73687;PMS7003;62257;48.376;-4.378;2022-07-19T15:48:10;3.25;3.25;3.00
73687;PMS7003;62257;48.376;-4.378;2022-07-19T15:50:36;4.75;2.50;2.25
73687;PMS7003;62257;48.376;-4.378;2022-07-19T15:53:11;3.25;2.00;2.00
73687;PMS7003;62257;48.376;-4.378;2022-07-19T15:55:37;3.00;3.00;2.25
73687;PMS7003;62257;48.376;-4.378;2022-07-19T15:58:03;4.00;4.00;2.75
73687;PMS7003;62257;48.376;-4.378;2022-07-19T16:00:28;3.00;2.25;1.75
73687;PMS7003;62257;48.376;-4.378;2022-07-19T16:02:55;1.50;1.50;1.00
73687;PMS7003;62257;48.376;-4.378;2022-07-19T16:05:21;4.50;3.00;1.50
73687;PMS7003;62257;48.376;-4.378;2022-07-19T16:07:46;3.25;3.25;2.00
73687;PMS7003;62257;48.376;-4.378;2022-07-19T16:10:12;4.25;2.25;2.00
73687;PMS7003;62257;48.376;-4.378;2022-07-19T16:12:38;4.00;2.50;2.00
73687;PMS7003;62257;48.376;-4.378;2022-07-19T16:15:04;3.25;3.25;2.75
73687;PMS7003;62257;48.376;-4.378;2022-07-19T16:17:30;5.00;3.00;2.50
73687;PMS7003;62257;48.376;-4.378;2022-07-19T16:19:56;5.50;3.00;2.00
73687;PMS7003;62257;48.376;-4.378;2022-07-19T16:22:22;1.50;0.00;0.00
73687;PMS7003;62257;48.376;-4.378;2022-07-19T16:24:48;4.25;2.50;2.25
73687;PMS7003;62257;48.376;-4.378;2022-07-19T16:27:15;3.50;1.00;1.00
73687;PMS7003;62257;48.376;-4.378;2022-07-19T16:29:41;2.00;2.00;1.75
73687;PMS7003;62257;48.376;-4.378;2022-07-19T16:32:07;5.25;3.00;2.50
73687;PMS7003;62257;48.376;-4.378;2022-07-19T16:34:32;4.25;3.25;3.00
73687;PMS7003;62257;48.376;-4.378;2022-07-19T16:36:58;4.50;2.25;2.00
73687;PMS7003;62257;48.376;-4.378;2022-07-19T16:39:23;4.25;3.25;3.00
73687;PMS7003;62257;48.376;-4.378;2022-07-19T16:41:49;3.75;2.25;2.00
73687;PMS7003;62257;48.376;-4.378;2022-07-19T16:44:14;4.75;2.75;2.75
73687;PMS7003;62257;48.376;-4.378;2022-07-19T16:46:40;3.75;3.75;2.25
73687;PMS7003;62257;48.376;-4.378;2022-07-19T16:49:05;3.75;2.25;2.00
73687;PMS7003;62257;48.376;-4.378;2022-07-19T16:51:31;1.00;1.00;1.00
73687;PMS7003;62257;48.376;-4.378;2022-07-19T16:53:56;4.00;2.00;2.00
73687;PMS7003;62257;48.376;-4.378;2022-07-19T16:56:22;3.50;3.50;2.75
73687;PMS7003;62257;48.376;-4.378;2022-07-19T16:58:48;3.75;3.00;2.50
73687;PMS7003;62257;48.376;-4.378;2022-07-19T17:01:13;4.00;2.25;1.50
73687;PMS7003;62257;48.376;-4.378;2022-07-19T17:03:39;2.50;2.50;2.00
73687;PMS7003;62257;48.376;-4.378;2022-07-19T17:06:05;4.00;2.50;2.00
73687;PMS7003;62257;48.376;-4.378;2022-07-19T17:08:31;4.25;3.00;3.00
73687;PMS7003;62257;48.376;-4.378;2022-07-19T17:10:57;3.00;3.00;2.75
73687;PMS7003;62257;48.376;-4.378;2022-07-19T17:13:23;5.00;3.00;2.75
73687;PMS7003;62257;48.376;-4.378;2022-07-19T17:15:49;3.00;2.00;1.50
73687;PMS7003;62257;48.376;-4.378;2022-07-19T17:18:14;3.25;3.00;3.00
73687;PMS7003;62257;48.376;-4.378;2022-07-19T17:20:40;3.25;3.00;2.00
73687;PMS7003;62257;48.376;-4.378;2022-07-19T17:23:05;3.75;2.25;2.00
73687;PMS7003;62257;48.376;-4.378;2022-07-19T17:25:30;3.00;3.00;2.00
73687;PMS7003;62257;48.376;-4.378;2022-07-19T17:27:56;2.50;2.50;2.25
73687;PMS7003;62257;48.376;-4.378;2022-07-19T17:30:22;3.75;3.00;3.00
73687;PMS7003;62257;48.376;-4.378;2022-07-19T17:32:48;2.00;2.00;1.50
73687;PMS7003;62257;48.376;-4.378;2022-07-19T17:35:14;3.50;2.50;2.00
73687;PMS7003;62257;48.376;-4.378;2022-07-19T17:37:40;2.25;2.25;1.25
73687;PMS7003;62257;48.376;-4.378;2022-07-19T17:40:06;3.00;3.00;3.00
73687;PMS7003;62257;48.376;-4.378;2022-07-19T17:42:32;2.25;2.25;2.00
73687;PMS7003;62257;48.376;-4.378;2022-07-19T17:44:58;5.25;2.75;1.75
73687;PMS7003;62257;48.376;-4.378;2022-07-19T17:47:23;4.00;4.00;3.00
73687;PMS7003;62257;48.376;-4.378;2022-07-19T17:49:52;5.50;4.25;3.25
73687;PMS7003;62257;48.376;-4.378;2022-07-19T17:52:18;4.50;3.25;2.50
73687;PMS7003;62257;48.376;-4.378;2022-07-19T17:54:43;3.00;3.00;2.00
73687;PMS7003;62257;48.376;-4.378;2022-07-19T17:57:09;4.00;4.00;3.50
73687;PMS7003;62257;48.376;-4.378;2022-07-19T17:59:34;5.50;4.25;3.25
73687;PMS7003;62257;48.376;-4.378;2022-07-19T18:01:59;5.00;2.50;2.00
73687;PMS7003;62257;48.376;-4.378;2022-07-19T18:04:25;4.50;4.00;2.50
73687;PMS7003;62257;48.376;-4.378;2022-07-19T18:06:50;4.25;3.25;3.25
73687;PMS7003;62257;48.376;-4.378;2022-07-19T18:09:16;5.50;3.75;2.75
73687;PMS7003;62257;48.376;-4.378;2022-07-19T18:11:41;3.75;3.00;2.25
73687;PMS7003;62257;48.376;-4.378;2022-07-19T18:14:07;3.00;3.00;2.00
73687;PMS7003;62257;48.376;-4.378;2022-07-19T18:16:33;5.25;2.25;1.50
73687;PMS7003;62257;48.376;-4.378;2022-07-19T18:18:59;3.50;3.50;3.00
73687;PMS7003;62257;48.376;-4.378;2022-07-19T18:21:25;3.50;3.50;2.75
73687;PMS7003;62257;48.376;-4.378;2022-07-19T18:23:50;7.00;4.50;3.00
73687;PMS7003;62257;48.376;-4.378;2022-07-19T18:26:16;3.50;3.50;3.25
73687;PMS7003;62257;48.376;-4.378;2022-07-19T18:28:41;8.00;4.00;3.00
73687;PMS7003;62257;48.376;-4.378;2022-07-19T18:31:07;4.00;3.50;3.00
73687;PMS7003;62257;48.376;-4.378;2022-07-19T18:33:32;5.25;4.75;4.00
73687;PMS7003;62257;48.376;-4.378;2022-07-19T18:35:58;5.00;4.00;3.00
73687;PMS7003;62257;48.376;-4.378;2022-07-19T18:38:23;5.00;5.00;4.00
73687;PMS7003;62257;48.376;-4.378;2022-07-19T18:40:48;4.50;4.00;3.00
73687;PMS7003;62257;48.376;-4.378;2022-07-19T18:43:14;3.00;3.00;3.00
73687;PMS7003;62257;48.376;-4.378;2022-07-19T18:45:39;4.25;4.25;3.00
73687;PMS7003;62257;48.376;-4.378;2022-07-19T18:48:05;7.50;4.75;3.00
73687;PMS7003;62257;48.376;-4.378;2022-07-19T18:50:30;8.50;4.00;3.00
73687;PMS7003;62257;48.376;-4.378;2022-07-19T18:52:56;4.75;4.75;3.00
73687;PMS7003;62257;48.376;-4.378;2022-07-19T18:55:21;7.25;3.25;3.00
73687;PMS7003;62257;48.376;-4.378;2022-07-19T18:57:47;3.25;3.25;2.75
73687;PMS7003;62257;48.376;-4.378;2022-07-19T19:00:13;3.50;3.50;3.25
73687;PMS7003;62257;48.376;-4.378;2022-07-19T19:02:41;6.00;5.50;3.50
73687;PMS7003;62257;48.376;-4.378;2022-07-19T19:05:07;6.75;4.00;3.50
73687;PMS7003;62257;48.376;-4.378;2022-07-19T19:07:33;5.75;5.00;4.00
73687;PMS7003;62257;48.376;-4.378;2022-07-19T19:09:59;8.75;5.50;4.25
73687;PMS7003;62257;48.376;-4.378;2022-07-19T19:12:24;3.00;3.00;3.00
73687;PMS7003;62257;48.376;-4.378;2022-07-19T19:14:50;7.25;6.00;4.00
73687;PMS7003;62257;48.376;-4.378;2022-07-19T19:17:15;9.75;7.00;4.00
73687;PMS7003;62257;48.376;-4.378;2022-07-19T19:19:41;6.00;4.50;3.75
73687;PMS7003;62257;48.376;-4.378;2022-07-19T19:22:07;6.25;5.00;4.00
73687;PMS7003;62257;48.376;-4.378;2022-07-19T19:24:33;6.00;5.00;4.25
73687;PMS7003;62257;48.376;-4.378;2022-07-19T19:26:58;5.25;5.25;4.00
73687;PMS7003;62257;48.376;-4.378;2022-07-19T19:29:23;9.25;5.75;4.00
73687;PMS7003;62257;48.376;-4.378;2022-07-19T19:31:51;7.00;5.75;4.25
73687;PMS7003;62257;48.376;-4.378;2022-07-19T19:34:17;6.25;4.00;2.75
73687;PMS7003;62257;48.376;-4.378;2022-07-19T19:36:42;6.00;6.00;4.00
73687;PMS7003;62257;48.376;-4.378;2022-07-19T19:39:08;7.75;4.00;3.50
73687;PMS7003;62257;48.376;-4.378;2022-07-19T19:41:33;7.25;4.25;4.00
73687;PMS7003;62257;48.376;-4.378;2022-07-19T19:43:59;4.25;3.25;2.75
73687;PMS7003;62257;48.376;-4.378;2022-07-19T19:46:24;5.00;4.75;3.50
73687;PMS7003;62257;48.376;-4.378;2022-07-19T19:48:51;4.75;4.50;3.75
73687;PMS7003;62257;48.376;-4.378;2022-07-19T19:51:16;5.25;2.50;0.50
73687;PMS7003;62257;48.376;-4.378;2022-07-19T19:53:42;5.25;5.25;4.00
73687;PMS7003;62257;48.376;-4.378;2022-07-19T19:56:12;7.25;6.50;4.00
73687;PMS7003;62257;48.376;-4.378;2022-07-19T19:58:38;8.50;6.75;4.50